createdAt,value
2022-10-25T00:00:55.168Z,0
2022-10-25T00:01:56.442Z,0
2022-10-25T00:02:58.233Z,0
2022-10-25T00:03:59.573Z,0
2022-10-25T00:05:01.413Z,0
2022-10-25T00:06:03.533Z,0
2022-10-25T00:07:05.453Z,0
2022-10-25T00:08:07.213Z,0
2022-10-25T00:09:08.174Z,0
2022-10-25T00:10:09.733Z,0
2022-10-25T00:11:12.001Z,0
2022-10-25T00:12:13.275Z,0
2022-10-25T00:13:14.635Z,0
2022-10-25T00:14:16.534Z,0
2022-10-25T00:15:18.214Z,0
2022-10-25T00:16:20.054Z,0
2022-10-25T00:17:21.313Z,0
2022-10-25T00:18:23.333Z,0
2022-10-25T00:19:25.193Z,0
2022-10-25T00:20:26.533Z,0
2022-10-25T00:21:28.214Z,0
2022-10-25T00:22:29.196Z,0
2022-10-25T00:23:30.501Z,0
2022-10-25T00:24:32.263Z,0
2022-10-25T00:25:33.294Z,0
2022-10-25T00:26:34.249Z,0
2022-10-25T00:27:35.233Z,0
2022-10-25T00:28:36.394Z,0
2022-10-25T00:29:38.554Z,0
2022-10-25T00:30:40.342Z,0
2022-10-25T00:31:42.314Z,0
2022-10-25T00:32:44.319Z,0
2022-10-25T00:33:45.425Z,0
2022-10-25T00:34:47.163Z,0
2022-10-25T00:35:48.198Z,0
2022-10-25T00:36:49.195Z,0
2022-10-25T00:37:50.283Z,0
2022-10-25T00:38:51.241Z,0
2022-10-25T00:39:52.393Z,0
2022-10-25T00:40:54.235Z,0
2022-10-25T00:41:55.198Z,0
2022-10-25T00:42:56.244Z,0
2022-10-25T00:43:57.613Z,0
2022-10-25T00:44:59.652Z,0
2022-10-25T00:47:03.636Z,0
2022-10-25T00:48:05.441Z,0
2022-10-25T00:49:07.635Z,0
2022-10-25T00:50:09.321Z,0
2022-10-25T00:51:10.333Z,0
2022-10-25T00:52:12.301Z,0
2022-10-25T00:53:13.195Z,0
2022-10-25T00:54:14.296Z,0
2022-10-25T00:55:15.365Z,0
2022-10-25T00:56:17.333Z,0
2022-10-25T00:57:19.741Z,0
2022-10-25T00:58:21.374Z,0
2022-10-25T00:59:23.213Z,0
2022-10-25T01:00:24.414Z,0
2022-10-25T01:01:28.121Z,0
2022-10-25T01:02:29.403Z,0
2022-10-25T01:03:31.321Z,0
2022-10-25T01:04:33.313Z,0
2022-10-25T01:05:35.741Z,0
2022-10-25T01:06:37.803Z,0
2022-10-25T01:07:39.373Z,0
2022-10-25T01:08:41.333Z,0
2022-10-25T01:09:43.234Z,0
2022-10-25T01:10:44.544Z,0
2022-10-25T01:11:46.362Z,0
2022-10-25T01:12:51.241Z,0
2022-10-25T01:13:50.253Z,0
2022-10-25T01:14:51.234Z,0
2022-10-25T01:15:52.833Z,0
2022-10-25T01:16:54.212Z,0
2022-10-25T01:17:55.695Z,0
2022-10-25T01:18:57.258Z,0
2022-10-25T01:19:58.375Z,0
2022-10-25T01:21:00.594Z,0
2022-10-25T01:22:02.413Z,0
2022-10-25T01:23:04.353Z,0
2022-10-25T01:24:06.393Z,0
2022-10-25T01:25:08.274Z,0
2022-10-25T01:26:10.233Z,0
2022-10-25T01:27:11.854Z,0
2022-10-25T01:28:13.240Z,0
2022-10-25T01:29:14.275Z,0
2022-10-25T01:30:15.302Z,0
2022-10-25T01:31:16.712Z,0
2022-10-25T01:32:18.513Z,0
2022-10-25T01:33:20.401Z,0
2022-10-25T01:34:22.441Z,0
2022-10-25T01:35:24.262Z,0
2022-10-25T01:36:27.250Z,0
2022-10-25T01:37:28.375Z,0
2022-10-25T01:38:30.865Z,0
2022-10-25T01:39:32.262Z,0
2022-10-25T01:40:33.236Z,0
2022-10-25T01:41:34.413Z,0
2022-10-25T01:42:36.435Z,0
2022-10-25T01:43:38.549Z,0
2022-10-25T01:44:40.454Z,0
2022-10-25T01:45:42.281Z,0
2022-10-25T01:46:43.622Z,0
2022-10-25T01:47:45.604Z,0
2022-10-25T01:48:50.753Z,0
2022-10-25T01:49:52.716Z,0
2022-10-25T01:50:54.373Z,0
2022-10-25T01:51:56.673Z,0
2022-10-25T01:52:58.295Z,0
2022-10-25T01:53:59.272Z,0
2022-10-25T01:55:00.316Z,0
2022-10-25T01:56:01.461Z,0
2022-10-25T01:57:04.034Z,0
2022-10-25T01:58:05.933Z,0
2022-10-25T01:59:07.586Z,0
2022-10-25T02:00:09.663Z,0
2022-10-25T02:04:17.336Z,0
2022-10-25T02:05:18.254Z,0
2022-10-25T02:06:19.392Z,0
2022-10-25T02:07:21.273Z,0
2022-10-25T02:08:22.283Z,0
2022-10-25T02:09:23.292Z,0
2022-10-25T02:10:24.300Z,0
2022-10-25T02:11:25.273Z,0
2022-10-25T02:12:26.210Z,0
2022-10-25T02:13:27.274Z,0
2022-10-25T02:14:28.360Z,0
2022-10-25T02:15:29.352Z,0
2022-10-25T02:16:31.595Z,0
2022-10-25T02:17:33.272Z,0
2022-10-25T02:18:34.633Z,0
2022-10-25T02:19:37.232Z,0
2022-10-25T02:20:39.931Z,0
2022-10-25T02:21:40.027Z,0
2022-10-25T02:22:41.521Z,0
2022-10-25T02:23:43.272Z,0
2022-10-25T02:24:44.284Z,0
2022-10-25T02:25:45.367Z,0
2022-10-25T02:26:46.681Z,0
2022-10-25T02:27:48.522Z,0
2022-10-25T02:28:49.293Z,0
2022-10-25T02:29:50.460Z,0
2022-10-25T02:30:52.294Z,0
2022-10-25T02:31:53.313Z,0
2022-10-25T02:32:54.512Z,0
2022-10-25T02:33:56.492Z,0
2022-10-25T02:34:58.241Z,0
2022-10-25T02:35:59.540Z,0
2022-10-25T02:37:01.550Z,0
2022-10-25T02:38:03.393Z,0
2022-10-25T02:39:05.436Z,0
2022-10-25T02:40:07.433Z,0
2022-10-25T02:41:09.272Z,0
2022-10-25T02:42:10.361Z,0
2022-10-25T02:43:12.613Z,0
2022-10-25T02:44:14.262Z,0
2022-10-25T02:45:16.080Z,0
2022-10-25T02:46:17.359Z,0
2022-10-25T02:47:18.314Z,0
2022-10-25T02:48:19.612Z,0
2022-10-25T02:49:21.472Z,0
2022-10-25T02:50:23.392Z,0
2022-10-25T02:51:25.295Z,0
2022-10-25T02:52:26.552Z,0
2022-10-25T02:53:28.294Z,0
2022-10-25T02:54:29.347Z,0
2022-10-25T02:55:31.375Z,0
2022-10-25T02:56:32.392Z,0
2022-10-25T02:57:34.464Z,0
2022-10-25T02:58:36.371Z,0
2022-10-25T02:59:37.313Z,0
2022-10-25T03:00:38.454Z,0
2022-10-25T03:01:40.814Z,0
2022-10-25T03:02:42.520Z,0
2022-10-25T03:03:44.368Z,0
2022-10-25T03:04:46.450Z,0
2022-10-25T03:05:48.786Z,0
2022-10-25T03:06:50.369Z,0
2022-10-25T03:07:52.292Z,0
2022-10-25T03:08:53.312Z,0
2022-10-25T03:09:54.314Z,0
2022-10-25T03:10:55.333Z,0
2022-10-25T03:11:56.412Z,0
2022-10-25T03:12:58.524Z,0
2022-10-25T03:14:00.312Z,0
2022-10-25T03:15:01.489Z,0
2022-10-25T03:16:03.556Z,0
2022-10-25T03:17:05.766Z,0
2022-10-25T03:18:07.511Z,0
2022-10-25T03:19:09.292Z,0
2022-10-25T03:20:10.572Z,0
2022-10-25T03:21:12.337Z,0
2022-10-25T03:22:14.052Z,0
2022-10-25T03:23:15.431Z,0
2022-10-25T03:24:17.328Z,0
2022-10-25T03:25:18.908Z,0
2022-10-25T03:26:20.752Z,0
2022-10-25T03:27:22.792Z,0
2022-10-25T03:28:24.301Z,0
2022-10-25T03:29:25.314Z,0
2022-10-25T03:30:26.572Z,0
2022-10-25T03:31:29.905Z,0
2022-10-25T03:32:31.400Z,0
2022-10-25T03:33:32.436Z,0
2022-10-25T03:34:34.313Z,0
2022-10-25T03:35:35.355Z,0
2022-10-25T03:36:36.513Z,0
2022-10-25T03:37:38.360Z,0
2022-10-25T03:38:39.533Z,0
2022-10-25T03:39:42.333Z,0
2022-10-25T03:40:43.313Z,0
2022-10-25T03:41:44.633Z,0
2022-10-25T03:42:46.769Z,0
2022-10-25T03:43:48.880Z,0
2022-10-25T03:44:50.731Z,0
2022-10-25T03:45:52.887Z,0
2022-10-25T03:46:54.377Z,0
2022-10-25T03:47:55.331Z,0
2022-10-25T03:48:56.352Z,0
2022-10-25T03:49:57.392Z,0
2022-10-25T03:50:58.819Z,0
2022-10-25T03:52:02.584Z,0
2022-10-25T03:53:02.441Z,0
2022-10-25T03:54:03.373Z,0
2022-10-25T03:55:04.894Z,0
2022-10-25T03:56:06.672Z,0
2022-10-25T03:57:08.913Z,0
2022-10-25T03:58:10.332Z,0
2022-10-25T03:59:11.353Z,0
2022-10-25T04:00:12.392Z,0
2022-10-25T04:01:13.452Z,0
2022-10-25T04:02:14.498Z,0
2022-10-25T04:03:16.402Z,0
2022-10-25T04:04:17.937Z,0
2022-10-25T04:05:19.432Z,0
2022-10-25T04:06:21.691Z,0
2022-10-25T04:07:23.534Z,0
2022-10-25T04:08:26.213Z,0
2022-10-25T04:09:27.735Z,0
2022-10-25T04:10:29.453Z,0
2022-10-25T04:11:31.816Z,0
2022-10-25T04:12:34.438Z,0
2022-10-25T04:13:37.215Z,0
2022-10-25T04:14:38.434Z,0
2022-10-25T04:15:39.401Z,0
2022-10-25T04:16:40.401Z,0
2022-10-25T04:17:42.087Z,0
2022-10-25T04:18:44.233Z,0
2022-10-25T04:19:45.372Z,0
2022-10-25T04:20:46.403Z,0
2022-10-25T04:21:47.692Z,0
2022-10-25T04:22:50.852Z,0
2022-10-25T04:23:52.783Z,0
2022-10-25T04:24:54.556Z,0
2022-10-25T04:25:56.413Z,0
2022-10-25T04:26:57.351Z,0
2022-10-25T04:27:59.272Z,0
2022-10-25T04:29:00.394Z,0
2022-10-25T04:30:01.462Z,0
2022-10-25T04:31:03.432Z,0
2022-10-25T04:32:04.653Z,0
2022-10-25T04:33:06.606Z,0
2022-10-25T04:34:08.380Z,0
2022-10-25T04:35:09.433Z,0
2022-10-25T04:36:10.473Z,0
2022-10-25T04:37:12.533Z,0
2022-10-25T04:38:14.434Z,0
2022-10-25T04:39:15.442Z,0
2022-10-25T04:40:21.112Z,0
2022-10-25T04:41:19.512Z,0
2022-10-25T04:42:21.558Z,0
2022-10-25T04:43:23.711Z,0
2022-10-25T04:44:25.732Z,0
2022-10-25T04:45:27.542Z,0
2022-10-25T04:46:29.673Z,0
2022-10-25T04:47:31.520Z,0
2022-10-25T04:48:33.517Z,0
2022-10-25T04:49:36.095Z,0
2022-10-25T04:50:37.633Z,0
2022-10-25T04:51:39.410Z,0
2022-10-25T04:52:40.513Z,0
2022-10-25T04:53:42.392Z,0
2022-10-25T04:54:43.402Z,0
2022-10-25T04:55:45.414Z,0
2022-10-25T04:56:46.372Z,0
2022-10-25T04:57:47.379Z,0
2022-10-25T04:58:49.573Z,0
2022-10-25T04:59:51.572Z,0
2022-10-25T05:00:53.492Z,0
2022-10-25T05:01:57.383Z,0
2022-10-25T05:02:58.527Z,0
2022-10-25T05:04:00.577Z,0
2022-10-25T05:05:02.482Z,0
2022-10-25T05:06:04.400Z,0
2022-10-25T05:07:05.612Z,0
2022-10-25T05:08:07.492Z,0
2022-10-25T05:09:09.395Z,0
2022-10-25T05:10:10.533Z,0
2022-10-25T05:11:12.933Z,0
2022-10-25T05:12:14.642Z,0
2022-10-25T05:13:16.789Z,0
2022-10-25T05:14:18.799Z,0
2022-10-25T05:15:21.174Z,0
2022-10-25T05:16:23.292Z,0
2022-10-25T05:17:24.473Z,0
2022-10-25T05:18:27.773Z,0
2022-10-25T05:19:29.799Z,0
2022-10-25T05:20:31.972Z,0
2022-10-25T05:21:33.512Z,0
2022-10-25T05:22:35.543Z,0
2022-10-25T05:23:37.332Z,0
2022-10-25T05:24:38.473Z,0
2022-10-25T05:25:40.673Z,0
2022-10-25T05:26:43.793Z,0
2022-10-25T05:27:46.133Z,0
2022-10-25T05:28:47.432Z,0
2022-10-25T05:29:48.653Z,0
2022-10-25T05:30:50.673Z,0
2022-10-25T05:31:53.104Z,0
2022-10-25T05:32:54.473Z,0
2022-10-25T05:33:55.477Z,0
2022-10-25T05:34:57.537Z,0
2022-10-25T05:35:59.452Z,0
2022-10-25T05:37:00.431Z,0
2022-10-25T05:38:01.494Z,0
2022-10-25T05:39:03.513Z,0
2022-10-25T05:40:05.451Z,0
2022-10-25T05:41:06.777Z,0
2022-10-25T05:42:08.843Z,0
2022-10-25T05:43:10.412Z,0
2022-10-25T05:44:11.344Z,0
2022-10-25T05:45:14.256Z,0
2022-10-25T05:46:15.318Z,0
2022-10-25T05:47:16.739Z,0
2022-10-25T05:48:19.156Z,0
2022-10-25T05:49:20.329Z,0
2022-10-25T05:50:21.559Z,0
2022-10-25T05:51:38.303Z,0
2022-10-25T05:52:24.412Z,0
2022-10-25T05:53:25.383Z,0
2022-10-25T05:54:26.714Z,0
2022-10-25T05:55:28.634Z,0
2022-10-25T05:56:30.693Z,0
2022-10-25T05:57:32.694Z,0
2022-10-25T05:58:34.419Z,0
2022-10-25T05:59:35.953Z,0
2022-10-25T06:01:39.627Z,0
2022-10-25T06:02:40.395Z,0
2022-10-25T06:03:41.859Z,0
2022-10-25T06:04:43.460Z,0
2022-10-25T06:05:45.206Z,0
2022-10-25T06:06:46.821Z,0
2022-10-25T06:07:48.432Z,0
2022-10-25T06:08:49.599Z,0
2022-10-25T06:09:51.472Z,0
2022-10-25T06:10:52.754Z,0
2022-10-25T06:11:55.394Z,0
2022-10-25T06:12:56.413Z,0
2022-10-25T06:13:57.435Z,0
2022-10-25T06:14:58.454Z,0
2022-10-25T06:15:59.433Z,0
2022-10-25T06:17:00.474Z,0
2022-10-25T06:18:01.833Z,0
2022-10-25T06:19:04.855Z,0
2022-10-25T06:20:06.463Z,0
2022-10-25T06:21:07.499Z,0
2022-10-25T06:22:08.374Z,0
2022-10-25T06:23:11.198Z,0
2022-10-25T06:24:12.460Z,0
2022-10-25T06:25:13.680Z,0
2022-10-25T06:26:15.500Z,0
2022-10-25T06:27:16.453Z,0
2022-10-25T06:28:17.761Z,0
2022-10-25T06:29:19.521Z,0
2022-10-25T06:30:21.844Z,0
2022-10-25T06:31:23.434Z,0
2022-10-25T06:32:24.492Z,0
2022-10-25T06:33:27.194Z,0
2022-10-25T06:34:26.981Z,0
2022-10-25T06:35:28.461Z,0
2022-10-25T06:36:29.477Z,0
2022-10-25T06:37:30.588Z,0
2022-10-25T06:38:32.532Z,0
2022-10-25T06:39:34.541Z,0
2022-10-25T06:40:36.801Z,0
2022-10-25T06:41:38.771Z,0
2022-10-25T06:42:40.732Z,0
2022-10-25T06:43:42.433Z,0
2022-10-25T06:44:43.439Z,0
2022-10-25T06:45:45.095Z,0
2022-10-25T06:47:48.698Z,0
2022-10-25T06:48:50.872Z,0
2022-10-25T06:49:52.894Z,0
2022-10-25T06:50:55.454Z,0
2022-10-25T06:51:56.897Z,0
2022-10-25T06:52:58.593Z,0
2022-10-25T06:54:00.488Z,0
2022-10-25T06:55:01.502Z,0
2022-10-25T06:56:04.413Z,0
2022-10-25T06:57:04.560Z,0
2022-10-25T06:58:07.215Z,0
2022-10-25T06:59:08.454Z,0
2022-10-25T07:00:09.515Z,0
2022-10-25T07:01:11.579Z,0
2022-10-25T07:02:12.612Z,0
2022-10-25T07:03:14.472Z,0
2022-10-25T07:04:16.292Z,0
2022-10-25T07:05:17.432Z,0
2022-10-25T07:06:18.501Z,0
2022-10-25T07:07:19.451Z,0
2022-10-25T07:08:21.176Z,0
2022-10-25T07:09:22.892Z,0
2022-10-25T07:10:24.778Z,0
2022-10-25T07:11:26.854Z,0
2022-10-25T07:12:28.573Z,0
2022-10-25T07:13:30.461Z,0
2022-10-25T07:14:33.541Z,0
2022-10-25T07:15:36.467Z,0
2022-10-25T07:16:36.618Z,0
2022-10-25T07:17:38.732Z,0
2022-10-25T07:18:41.013Z,0
2022-10-25T07:19:42.485Z,0
2022-10-25T07:20:43.513Z,0
2022-10-25T07:21:44.612Z,0
2022-10-25T07:22:46.649Z,0
2022-10-25T07:23:49.084Z,0
2022-10-25T07:24:50.563Z,0
2022-10-25T07:25:52.474Z,0
2022-10-25T07:26:53.957Z,0
2022-10-25T07:27:55.437Z,0
2022-10-25T07:28:56.496Z,0
2022-10-25T07:29:57.434Z,0
2022-10-25T07:30:58.735Z,0
2022-10-25T07:32:00.514Z,0
2022-10-25T07:33:01.545Z,0
2022-10-25T07:34:03.522Z,0
2022-10-25T07:35:05.519Z,0
2022-10-25T07:36:10.928Z,0
2022-10-25T07:37:08.513Z,0
2022-10-25T07:38:10.459Z,0
2022-10-25T07:39:11.512Z,0
2022-10-25T07:40:12.513Z,0
2022-10-25T07:41:13.532Z,0
2022-10-25T07:42:16.032Z,0
2022-10-25T07:43:17.622Z,0
2022-10-25T07:44:24.015Z,0
2022-10-25T07:45:23.516Z,0
2022-10-25T07:46:22.494Z,0
2022-10-25T07:47:24.075Z,0
2022-10-25T07:48:25.573Z,0
2022-10-25T07:49:27.554Z,0
2022-10-25T07:50:28.693Z,0
2022-10-25T07:51:30.781Z,0
2022-10-25T07:52:32.813Z,0
2022-10-25T07:53:35.299Z,0
2022-10-25T07:54:37.204Z,0
2022-10-25T07:55:38.512Z,0
2022-10-25T07:56:39.570Z,0
2022-10-25T07:57:40.957Z,0
2022-10-25T07:58:42.473Z,0
2022-10-25T07:59:43.954Z,0
2022-10-25T08:00:45.434Z,0
2022-10-25T08:01:46.622Z,0
2022-10-25T08:02:48.131Z,0
2022-10-25T08:03:49.769Z,0
2022-10-25T08:04:53.533Z,0
2022-10-25T08:05:52.534Z,0
2022-10-25T08:06:54.373Z,0
2022-10-25T08:07:55.514Z,0
2022-10-25T08:08:56.561Z,0
2022-10-25T08:09:57.852Z,0
2022-10-25T08:10:59.753Z,0
2022-10-25T08:12:02.053Z,0
2022-10-25T08:13:03.515Z,0
2022-10-25T08:14:05.395Z,0
2022-10-25T08:15:06.753Z,0
2022-10-25T08:16:08.655Z,0
2022-10-25T08:17:10.914Z,0
2022-10-25T08:18:12.520Z,0
2022-10-25T08:19:13.543Z,0
2022-10-25T08:20:14.594Z,0
2022-10-25T08:21:16.982Z,0
2022-10-25T08:22:19.402Z,0
2022-10-25T08:23:20.474Z,0
2022-10-25T08:24:21.518Z,0
2022-10-25T08:25:23.581Z,0
2022-10-25T08:26:23.512Z,0
2022-10-25T08:27:24.714Z,0
2022-10-25T08:28:26.672Z,0
2022-10-25T08:29:28.552Z,0.63
2022-10-25T08:30:29.953Z,0.39
2022-10-25T08:31:31.549Z,0.07
2022-10-25T08:32:32.453Z,0.3
2022-10-25T08:33:33.572Z,0.46
2022-10-25T08:34:35.460Z,0.19
2022-10-25T08:35:36.632Z,0.56
2022-10-25T08:36:38.657Z,0.17
2022-10-25T08:37:40.537Z,0.77
2022-10-25T08:38:41.592Z,0.57
2022-10-25T08:39:43.858Z,0.28
2022-10-25T08:40:45.872Z,0.19
2022-10-25T08:41:47.484Z,0.54
2022-10-25T08:42:48.472Z,0.59
2022-10-25T08:43:49.833Z,0.17
2022-10-25T08:44:51.512Z,0.49
2022-10-25T08:45:53.013Z,0.5
2022-10-25T08:46:54.537Z,0.63
2022-10-25T08:47:55.473Z,0.22
2022-10-25T08:48:56.533Z,0.7
2022-10-25T08:49:57.467Z,0.63
2022-10-25T08:50:58.592Z,0.64
2022-10-25T08:52:00.615Z,0.38
2022-10-25T08:53:03.120Z,0.28
2022-10-25T08:54:04.672Z,0.76
2022-10-25T08:55:06.837Z,0.69
2022-10-25T08:56:16.387Z,0.68
2022-10-25T08:57:15.347Z,0.64
2022-10-25T08:58:13.332Z,0.49
2022-10-25T08:59:14.832Z,0.05
2022-10-25T09:00:16.761Z,0.27
2022-10-25T09:01:18.846Z,0.67
2022-10-25T09:02:20.729Z,0.29
2022-10-25T09:03:22.574Z,0.31
2022-10-25T09:04:23.532Z,0.32
2022-10-25T09:05:25.312Z,0.22
2022-10-25T09:06:26.581Z,0.16
2022-10-25T09:07:27.533Z,0.15
2022-10-25T09:08:29.039Z,0.36
2022-10-25T09:09:30.952Z,0.68
2022-10-25T09:10:32.577Z,0.7
2022-10-25T09:11:33.592Z,0.74
2022-10-25T09:12:34.552Z,1
2022-10-25T09:14:36.773Z,0.87
2022-10-25T09:15:40.354Z,0.43
2022-10-25T09:16:40.534Z,0.84
2022-10-25T09:17:41.557Z,0.58
2022-10-25T09:18:42.513Z,0.2
2022-10-25T09:19:44.612Z,0.62
2022-10-25T09:20:46.640Z,0.55
2022-10-25T09:21:48.593Z,1.04
2022-10-25T09:22:50.052Z,0.87
2022-10-25T09:23:54.253Z,1.54
2022-10-25T09:24:56.948Z,0.63
2022-10-25T09:25:57.599Z,0.12
2022-10-25T09:26:58.533Z,0.42
2022-10-25T09:27:59.595Z,0.18
2022-10-25T09:29:02.016Z,1.21
2022-10-25T09:30:05.148Z,1.07
2022-10-25T09:31:05.933Z,1.44
2022-10-25T09:32:07.772Z,1.1
2022-10-25T09:33:10.544Z,1.12
2022-10-25T09:34:11.573Z,1.81
2022-10-25T09:35:12.492Z,0.54
2022-10-25T09:36:13.536Z,1.13
2022-10-25T09:37:14.532Z,0.56
2022-10-25T09:38:16.361Z,0.36
2022-10-25T09:39:17.652Z,0.12
2022-10-25T09:40:19.573Z,0.27
2022-10-25T09:41:20.638Z,1.23
2022-10-25T09:42:21.665Z,0.19
2022-10-25T09:43:23.882Z,0.39
2022-10-25T09:44:25.607Z,1.19
2022-10-25T09:45:26.633Z,0.6
2022-10-25T09:46:28.532Z,0.43
2022-10-25T09:47:29.532Z,0.59
2022-10-25T09:48:30.758Z,0.21
2022-10-25T09:49:33.011Z,1.29
2022-10-25T09:50:34.792Z,1.67
2022-10-25T09:51:36.732Z,1.09
2022-10-25T09:52:38.762Z,0.92
2022-10-25T09:53:40.702Z,0.86
2022-10-25T09:54:42.601Z,0.68
2022-10-25T09:55:43.638Z,0.47
2022-10-25T09:56:45.983Z,0.49
2022-10-25T09:57:48.083Z,0.45
2022-10-25T09:58:50.324Z,0.63
2022-10-25T09:59:51.593Z,0.35
2022-10-25T10:00:52.553Z,0.81
2022-10-25T10:01:53.873Z,1.15
2022-10-25T10:02:56.115Z,0.35
2022-10-25T10:03:58.062Z,0.18
2022-10-25T10:04:59.891Z,0.21
2022-10-25T10:06:01.654Z,0.3
2022-10-25T10:07:03.731Z,0.39
2022-10-25T10:08:05.591Z,0.6
2022-10-25T10:09:06.632Z,1.23
2022-10-25T10:10:07.635Z,0.68
2022-10-25T10:11:09.572Z,0.54
2022-10-25T10:12:11.597Z,0.67
2022-10-25T10:13:12.832Z,0.37
2022-10-25T10:14:14.615Z,0.18
2022-10-25T10:15:15.537Z,0.22
2022-10-25T10:16:16.762Z,0.11
2022-10-25T10:17:18.893Z,0.2
2022-10-25T10:18:20.701Z,0
2022-10-25T10:19:22.692Z,0.09
2022-10-25T10:20:24.872Z,0.16
2022-10-25T10:21:26.872Z,0.28
2022-10-25T10:22:29.714Z,0.19
2022-10-25T10:23:31.835Z,0.14
2022-10-25T10:24:33.591Z,0.3
2022-10-25T10:25:34.736Z,0.71
2022-10-25T10:26:36.952Z,0.63
2022-10-25T10:27:38.769Z,0.98
2022-10-25T10:28:41.012Z,0.93
2022-10-25T10:29:42.511Z,0.92
2022-10-25T10:30:43.611Z,0.24
2022-10-25T10:31:45.160Z,0.04
2022-10-25T10:32:47.022Z,0.12
2022-10-25T10:33:48.672Z,0
2022-10-25T10:34:50.718Z,0.18
2022-10-25T10:35:52.694Z,0.53
2022-10-25T10:36:55.132Z,0.57
2022-10-25T10:37:56.793Z,0.53
2022-10-25T10:38:58.672Z,0.23
2022-10-25T10:40:01.014Z,0.11
2022-10-25T10:41:03.256Z,1.02
2022-10-25T10:42:05.017Z,0.4
2022-10-25T10:43:06.669Z,0.4
2022-10-25T10:44:07.609Z,0.39
2022-10-25T10:45:08.900Z,0.1
2022-10-25T10:46:10.754Z,0.1
2022-10-25T10:47:12.712Z,0.59
2022-10-25T10:48:14.674Z,0.22
2022-10-25T10:49:16.693Z,0
2022-10-25T10:50:18.648Z,0.15
2022-10-25T10:51:45.783Z,0.17
2022-10-25T10:53:24.613Z,0.48
2022-10-25T10:54:25.634Z,0.45
2022-10-25T10:55:27.434Z,0
2022-10-25T10:56:28.914Z,0
2022-10-25T10:57:30.639Z,0.55
2022-10-25T10:58:31.659Z,0
2022-10-25T10:59:33.052Z,0.21
2022-10-25T11:00:35.052Z,0
2022-10-25T11:01:37.599Z,0.15
2022-10-25T11:02:39.184Z,0.07
2022-10-25T11:03:44.899Z,0.2
2022-10-25T11:04:42.973Z,0.22
2022-10-25T11:05:44.554Z,0
2022-10-25T11:06:45.592Z,0.2
2022-10-25T11:07:46.900Z,0.21
2022-10-25T11:08:49.129Z,0.21
2022-10-25T11:09:51.033Z,0
2022-10-25T11:10:53.594Z,0
2022-10-25T11:11:54.678Z,0
2022-10-25T11:12:56.696Z,0
2022-10-25T11:13:59.230Z,0.05
2022-10-25T11:15:00.716Z,0
2022-10-25T11:16:02.739Z,0
2022-10-25T11:17:04.682Z,0
2022-10-25T11:18:06.694Z,0
2022-10-25T11:19:08.892Z,0
2022-10-25T11:20:10.860Z,0.41
2022-10-25T11:21:13.073Z,0.33
2022-10-25T11:22:14.734Z,0
2022-10-25T11:23:17.272Z,0.2
2022-10-25T11:24:18.857Z,0.62
2022-10-25T11:25:21.453Z,0.34
2022-10-25T11:26:22.853Z,0.88
2022-10-25T11:27:24.633Z,0.16
2022-10-25T11:28:25.892Z,0.18
2022-10-25T11:29:28.093Z,0.24
2022-10-25T11:30:29.662Z,0.1
2022-10-25T11:31:30.785Z,0.28
2022-10-25T11:32:32.720Z,0.17
2022-10-25T11:33:34.833Z,0.31
2022-10-25T11:34:36.673Z,0
2022-10-25T11:35:38.792Z,0.07
2022-10-25T11:36:40.734Z,0
2022-10-25T11:37:42.615Z,0.13
2022-10-25T11:38:43.633Z,0.1
2022-10-25T11:39:48.130Z,0.06
2022-10-25T11:40:46.672Z,0
2022-10-25T11:41:48.646Z,0.4
2022-10-25T11:42:50.094Z,0.31
2022-10-25T11:43:52.226Z,0.36
2022-10-25T11:44:54.310Z,0.3
2022-10-25T11:45:55.692Z,0.33
2022-10-25T11:46:57.711Z,0.29
2022-10-25T11:47:59.653Z,0.2
2022-10-25T11:49:00.972Z,0.48
2022-10-25T11:50:02.953Z,0.18
2022-10-25T11:51:04.711Z,0.19
2022-10-25T11:52:07.206Z,0.3
2022-10-25T11:53:08.873Z,0.27
2022-10-25T11:54:10.672Z,0.33
2022-10-25T11:55:12.754Z,0.71
2022-10-25T11:56:15.121Z,1.52
2022-10-25T11:57:16.735Z,0.91
2022-10-25T11:58:18.752Z,0.13
2022-10-25T11:59:21.012Z,0.32
2022-10-25T12:00:23.919Z,0.55
2022-10-25T12:01:25.753Z,0.71
2022-10-25T12:02:27.771Z,1.18
2022-10-25T12:03:33.191Z,0.25
2022-10-25T12:04:37.757Z,0.15
2022-10-25T12:05:36.653Z,0.4
2022-10-25T12:06:37.752Z,1.21
2022-10-25T12:07:40.135Z,1.29
2022-10-25T12:08:41.692Z,0.94
2022-10-25T12:09:43.691Z,0.53
2022-10-25T12:11:46.752Z,0.14
2022-10-25T12:12:50.138Z,0.4
2022-10-25T12:13:51.732Z,0.23
2022-10-25T12:14:53.632Z,0.29
2022-10-25T12:15:54.779Z,0.42
2022-10-25T12:16:55.713Z,0.96
2022-10-25T12:17:57.671Z,0.41
2022-10-25T12:18:58.732Z,0.43
2022-10-25T12:20:03.812Z,0.64
2022-10-25T12:21:05.612Z,0.1
2022-10-25T12:22:06.853Z,0.12
2022-10-25T12:23:09.233Z,0.1
2022-10-25T12:24:10.695Z,0
2022-10-25T12:25:11.641Z,0
2022-10-25T12:26:12.966Z,0
2022-10-25T12:27:14.695Z,0.26
2022-10-25T12:28:17.053Z,0.2
2022-10-25T12:29:18.594Z,0.29
2022-10-25T12:30:19.790Z,0.57
2022-10-25T12:31:20.790Z,0.64
2022-10-25T12:32:21.745Z,0.59
2022-10-25T12:33:23.651Z,0.62
2022-10-25T12:34:24.711Z,0.92
2022-10-25T12:35:26.732Z,0.89
2022-10-25T12:36:28.654Z,0.49
2022-10-25T12:37:29.686Z,1.1
2022-10-25T12:38:30.684Z,0.38
2022-10-25T12:39:32.648Z,0.19
2022-10-25T12:40:35.560Z,0.24
2022-10-25T12:41:36.032Z,0.07
2022-10-25T12:42:37.991Z,0.09
2022-10-25T12:43:39.871Z,0.49
2022-10-25T12:44:41.633Z,0.81
2022-10-25T12:45:43.092Z,0.77
2022-10-25T12:46:44.968Z,0.94
2022-10-25T12:47:46.954Z,0.5
2022-10-25T12:48:48.620Z,1.12
2022-10-25T12:49:50.040Z,1.41
2022-10-25T12:50:51.937Z,0.48
2022-10-25T12:51:53.872Z,0.23
2022-10-25T12:52:56.256Z,0.26
2022-10-25T12:53:57.692Z,0.51
2022-10-25T12:54:58.733Z,0.5
2022-10-25T12:56:00.734Z,0.85
2022-10-25T12:57:02.897Z,0.29
2022-10-25T12:58:04.978Z,0.59
2022-10-25T12:59:06.613Z,0.1
2022-10-25T13:00:08.007Z,0.2
2022-10-25T13:01:09.956Z,0.19
2022-10-25T13:02:12.145Z,0
2022-10-25T13:03:17.021Z,0
2022-10-25T13:04:15.660Z,0.11
2022-10-25T13:05:16.873Z,0
2022-10-25T13:06:19.792Z,0.22
2022-10-25T13:07:21.723Z,0
2022-10-25T13:08:23.673Z,0.57
2022-10-25T13:09:27.065Z,0.87
2022-10-25T13:11:27.674Z,0.42
2022-10-25T13:12:28.812Z,0.21
2022-10-25T13:13:30.912Z,0
2022-10-25T13:14:32.813Z,0
2022-10-25T13:15:35.511Z,0
2022-10-25T13:16:36.882Z,0
2022-10-25T13:17:39.370Z,0.25
2022-10-25T13:18:40.713Z,0.16
2022-10-25T13:19:53.927Z,0
2022-10-25T13:20:42.947Z,0.86
2022-10-25T13:21:44.952Z,0
2022-10-25T13:22:47.696Z,0
2022-10-25T13:23:49.032Z,0
2022-10-25T13:24:50.893Z,0
2022-10-25T13:25:52.691Z,0.29
2022-10-25T13:26:53.913Z,0.49
2022-10-25T13:27:55.672Z,0.44
2022-10-25T13:28:56.672Z,0.15
2022-10-25T13:29:58.111Z,0
2022-10-25T13:30:59.804Z,0.31
2022-10-25T13:32:01.664Z,0.74
2022-10-25T13:33:02.869Z,0.48
2022-10-25T13:34:04.973Z,0.3
2022-10-25T13:35:06.989Z,0.1
2022-10-25T13:36:09.094Z,0.19
2022-10-25T13:37:10.773Z,0.33
2022-10-25T13:38:12.713Z,0.17
2022-10-25T13:39:13.712Z,0.07
2022-10-25T13:40:14.768Z,0.51
2022-10-25T13:41:15.732Z,0.42
2022-10-25T13:42:16.813Z,0.84
2022-10-25T13:43:18.774Z,0.46
2022-10-25T13:44:20.672Z,0.28
2022-10-25T13:45:21.797Z,0.39
2022-10-25T13:46:23.751Z,0.59
2022-10-25T13:47:24.692Z,0.53
2022-10-25T13:48:25.896Z,0.31
2022-10-25T13:49:28.153Z,0.19
2022-10-25T13:50:29.792Z,0.39
2022-10-25T13:51:31.688Z,0
2022-10-25T13:52:32.995Z,0.19
2022-10-25T13:53:34.746Z,0.24
2022-10-25T13:54:35.736Z,0
2022-10-25T13:55:36.679Z,0
2022-10-25T13:56:37.698Z,0
2022-10-25T13:57:38.671Z,0.23
2022-10-25T13:58:40.238Z,0.31
2022-10-25T13:59:41.615Z,0
2022-10-25T14:00:45.494Z,0
2022-10-25T14:01:44.838Z,0.14
2022-10-25T14:02:45.898Z,0.08
2022-10-25T14:03:46.678Z,0.26
2022-10-25T14:04:48.006Z,0
2022-10-25T14:05:50.838Z,0
2022-10-25T14:06:53.467Z,0
2022-10-25T14:07:54.789Z,0
2022-10-25T14:08:56.846Z,0
2022-10-25T14:09:58.799Z,0.78
2022-10-25T14:11:00.836Z,0.11
2022-10-25T14:12:03.439Z,0
2022-10-25T14:13:04.865Z,0
2022-10-25T14:14:06.816Z,0.4
2022-10-25T14:15:08.842Z,0.06
2022-10-25T14:16:10.804Z,0
2022-10-25T14:17:12.717Z,0
2022-10-25T14:18:13.907Z,0.25
2022-10-25T14:19:15.862Z,0
2022-10-25T14:20:18.160Z,0
2022-10-25T14:21:19.998Z,0.13
2022-10-25T14:22:22.736Z,0.08
2022-10-25T14:23:24.847Z,0
2022-10-25T14:24:26.726Z,0.12
2022-10-25T14:25:28.816Z,0
2022-10-25T14:26:30.795Z,0.27
2022-10-25T14:27:32.786Z,0.59
2022-10-25T14:28:34.919Z,0
2022-10-25T14:29:36.896Z,0
2022-10-25T14:30:38.808Z,0
2022-10-25T14:31:40.768Z,0
2022-10-25T14:32:42.689Z,0
2022-10-25T14:33:43.746Z,0
2022-10-25T14:34:44.752Z,0
2022-10-25T14:35:45.707Z,0
2022-10-25T14:36:46.630Z,0
2022-10-25T14:37:47.755Z,0
2022-10-25T14:38:50.295Z,0.2
2022-10-25T14:39:51.932Z,0.17
2022-10-25T14:40:54.257Z,0.22
2022-10-25T14:41:56.078Z,0
2022-10-25T14:42:57.699Z,0.43
2022-10-25T14:43:58.611Z,0.39
2022-10-25T14:44:59.696Z,0.3
2022-10-25T14:46:00.688Z,0.22
2022-10-25T14:47:01.734Z,0.43
2022-10-25T14:48:02.713Z,0.38
2022-10-25T14:49:03.680Z,0.44
2022-10-25T14:50:07.863Z,0.21